Glenrock, Wyoming
Current Conditions -  °F | °C
As of 11:53 AM on Sunday 23 Nov 2014 (Local Time) from KCPR Reporting Station
Overcast Overcast  
Wind Chill: 20°   Ceiling: 8500
Heat Index: 33°   Visibility: 10mi
Dew Point: 15°   Wind: 24mph
Humidity: 48%   Direction: 310°NW
Pressure: 29.86"   Gusts: 31mph
Location:  42.86°N, 105.87°W
Report Text: KCPR 231853Z 31021G27KT 10SM OVC085 01/M09 A2986 RMK AO2 PK WND 31027/1852 SLP127 T00061094
Loading
Personal Weather Stations






























Interactive Weather Map New forecast layout! Learn more

10-Day Weather Forecast

Advertisements
Track Severe Weather on mobile